sensor_id;sensor_type;location;lat;lon;timestamp;temperature;humidity
27188;DHT22;14708;50.872;5.306;2024-02-21T00:00:57;27.00;41.10
27188;DHT22;14708;50.872;5.306;2024-02-21T00:03:23;26.90;41.10
27188;DHT22;14708;50.872;5.306;2024-02-21T00:05:49;26.90;41.00
27188;DHT22;14708;50.872;5.306;2024-02-21T00:08:16;26.90;41.20
27188;DHT22;14708;50.872;5.306;2024-02-21T00:10:42;26.90;41.10
27188;DHT22;14708;50.872;5.306;2024-02-21T00:13:09;26.90;41.20
27188;DHT22;14708;50.872;5.306;2024-02-21T00:15:35;26.90;41.20
27188;DHT22;14708;50.872;5.306;2024-02-21T00:18:01;26.90;41.20
27188;DHT22;14708;50.872;5.306;2024-02-21T00:20:27;26.90;41.00
27188;DHT22;14708;50.872;5.306;2024-02-21T00:22:53;26.90;41.00
27188;DHT22;14708;50.872;5.306;2024-02-21T00:25:20;26.90;41.10
27188;DHT22;14708;50.872;5.306;2024-02-21T00:27:46;26.80;41.00
27188;DHT22;14708;50.872;5.306;2024-02-21T00:30:12;26.80;41.10
27188;DHT22;14708;50.872;5.306;2024-02-21T00:32:37;26.80;41.00
27188;DHT22;14708;50.872;5.306;2024-02-21T00:35:04;26.80;41.10
27188;DHT22;14708;50.872;5.306;2024-02-21T00:37:31;26.80;41.10
27188;DHT22;14708;50.872;5.306;2024-02-21T00:39:58;26.80;41.20
27188;DHT22;14708;50.872;5.306;2024-02-21T00:42:23;26.80;41.30
27188;DHT22;14708;50.872;5.306;2024-02-21T00:44:49;26.80;41.20
27188;DHT22;14708;50.872;5.306;2024-02-21T00:47:15;26.80;41.10
27188;DHT22;14708;50.872;5.306;2024-02-21T00:49:42;26.80;41.20
27188;DHT22;14708;50.872;5.306;2024-02-21T00:52:09;26.70;41.00
27188;DHT22;14708;50.872;5.306;2024-02-21T00:54:34;26.80;41.10
27188;DHT22;14708;50.872;5.306;2024-02-21T00:57:00;26.70;41.10
27188;DHT22;14708;50.872;5.306;2024-02-21T00:59:27;26.70;41.00
27188;DHT22;14708;50.872;5.306;2024-02-21T01:01:53;26.70;41.00
27188;DHT22;14708;50.872;5.306;2024-02-21T01:04:20;26.70;40.90
27188;DHT22;14708;50.872;5.306;2024-02-21T01:06:46;26.70;41.00
27188;DHT22;14708;50.872;5.306;2024-02-21T01:09:11;26.70;41.00
27188;DHT22;14708;50.872;5.306;2024-02-21T01:11:37;26.70;41.10
27188;DHT22;14708;50.872;5.306;2024-02-21T01:14:03;26.70;41.10
27188;DHT22;14708;50.872;5.306;2024-02-21T01:16:28;26.70;41.20
27188;DHT22;14708;50.872;5.306;2024-02-21T01:18:55;26.70;41.10
27188;DHT22;14708;50.872;5.306;2024-02-21T01:21:21;26.70;41.20
27188;DHT22;14708;50.872;5.306;2024-02-21T01:23:47;26.70;41.00
27188;DHT22;14708;50.872;5.306;2024-02-21T01:26:14;26.70;41.20
27188;DHT22;14708;50.872;5.306;2024-02-21T01:28:41;26.60;41.10
27188;DHT22;14708;50.872;5.306;2024-02-21T01:31:07;26.70;41.70
27188;DHT22;14708;50.872;5.306;2024-02-21T01:33:32;26.60;41.00
27188;DHT22;14708;50.872;5.306;2024-02-21T01:36:03;26.60;41.00
27188;DHT22;14708;50.872;5.306;2024-02-21T01:38:30;26.60;41.10
27188;DHT22;14708;50.872;5.306;2024-02-21T01:40:57;26.60;40.90
27188;DHT22;14708;50.872;5.306;2024-02-21T01:43:23;26.60;41.00
27188;DHT22;14708;50.872;5.306;2024-02-21T01:45:57;26.60;40.90
27188;DHT22;14708;50.872;5.306;2024-02-21T01:48:25;26.60;41.10
27188;DHT22;14708;50.872;5.306;2024-02-21T01:50:52;26.60;41.00
27188;DHT22;14708;50.872;5.306;2024-02-21T01:53:30;26.60;41.00
27188;DHT22;14708;50.872;5.306;2024-02-21T01:55:58;26.60;41.10
27188;DHT22;14708;50.872;5.306;2024-02-21T01:58:24;26.60;41.00
27188;DHT22;14708;50.872;5.306;2024-02-21T02:00:50;26.50;40.90
27188;DHT22;14708;50.872;5.306;2024-02-21T02:03:17;26.50;40.90
27188;DHT22;14708;50.872;5.306;2024-02-21T02:05:46;26.60;41.00
27188;DHT22;14708;50.872;5.306;2024-02-21T02:08:17;26.50;40.90
27188;DHT22;14708;50.872;5.306;2024-02-21T02:10:44;26.50;40.90
27188;DHT22;14708;50.872;5.306;2024-02-21T02:13:11;26.50;40.90
27188;DHT22;14708;50.872;5.306;2024-02-21T02:18:04;26.50;40.90
27188;DHT22;14708;50.872;5.306;2024-02-21T02:20:30;26.50;40.90
27188;DHT22;14708;50.872;5.306;2024-02-21T02:22:56;26.50;40.70
27188;DHT22;14708;50.872;5.306;2024-02-21T02:25:22;26.50;40.80
27188;DHT22;14708;50.872;5.306;2024-02-21T02:27:49;26.50;40.90
27188;DHT22;14708;50.872;5.306;2024-02-21T02:30:15;26.50;40.90
27188;DHT22;14708;50.872;5.306;2024-02-21T02:32:44;26.50;40.90
27188;DHT22;14708;50.872;5.306;2024-02-21T02:35:11;26.50;40.90
27188;DHT22;14708;50.872;5.306;2024-02-21T02:37:37;26.50;40.90
27188;DHT22;14708;50.872;5.306;2024-02-21T02:40:07;26.50;40.90
27188;DHT22;14708;50.872;5.306;2024-02-21T02:42:33;26.50;40.90
27188;DHT22;14708;50.872;5.306;2024-02-21T02:45:00;26.50;41.00
27188;DHT22;14708;50.872;5.306;2024-02-21T02:47:26;26.40;40.70
27188;DHT22;14708;50.872;5.306;2024-02-21T02:49:51;26.50;41.60
27188;DHT22;14708;50.872;5.306;2024-02-21T02:52:17;26.50;40.90
27188;DHT22;14708;50.872;5.306;2024-02-21T02:54:44;26.50;40.80
27188;DHT22;14708;50.872;5.306;2024-02-21T02:57:10;26.50;40.90
27188;DHT22;14708;50.872;5.306;2024-02-21T02:59:37;26.40;40.70
27188;DHT22;14708;50.872;5.306;2024-02-21T03:02:03;26.40;40.80
27188;DHT22;14708;50.872;5.306;2024-02-21T03:04:29;26.40;40.90
27188;DHT22;14708;50.872;5.306;2024-02-21T03:06:55;26.40;40.80
27188;DHT22;14708;50.872;5.306;2024-02-21T03:09:20;26.40;40.80
27188;DHT22;14708;50.872;5.306;2024-02-21T03:11:47;26.40;40.70
27188;DHT22;14708;50.872;5.306;2024-02-21T03:14:13;26.40;40.70
27188;DHT22;14708;50.872;5.306;2024-02-21T03:16:38;26.40;40.80
27188;DHT22;14708;50.872;5.306;2024-02-21T03:19:04;26.40;41.40
27188;DHT22;14708;50.872;5.306;2024-02-21T03:21:29;26.40;40.80
27188;DHT22;14708;50.872;5.306;2024-02-21T03:23:55;26.40;40.90
27188;DHT22;14708;50.872;5.306;2024-02-21T03:26:21;26.40;40.70
27188;DHT22;14708;50.872;5.306;2024-02-21T03:28:47;26.40;41.40
27188;DHT22;14708;50.872;5.306;2024-02-21T03:31:12;26.40;40.80
27188;DHT22;14708;50.872;5.306;2024-02-21T03:33:42;26.40;40.80
27188;DHT22;14708;50.872;5.306;2024-02-21T03:36:13;26.30;40.60
27188;DHT22;14708;50.872;5.306;2024-02-21T03:38:39;26.30;40.60
27188;DHT22;14708;50.872;5.306;2024-02-21T03:41:05;26.30;40.70
27188;DHT22;14708;50.872;5.306;2024-02-21T03:43:31;26.40;40.70
27188;DHT22;14708;50.872;5.306;2024-02-21T03:45:59;26.30;40.70
27188;DHT22;14708;50.872;5.306;2024-02-21T03:48:26;26.30;40.60
27188;DHT22;14708;50.872;5.306;2024-02-21T03:50:52;26.30;40.70
27188;DHT22;14708;50.872;5.306;2024-02-21T03:53:17;26.30;40.70
27188;DHT22;14708;50.872;5.306;2024-02-21T03:55:44;26.30;40.60
27188;DHT22;14708;50.872;5.306;2024-02-21T03:58:09;26.30;40.40
27188;DHT22;14708;50.872;5.306;2024-02-21T04:00:35;26.30;40.60
27188;DHT22;14708;50.872;5.306;2024-02-21T04:03:00;26.30;40.50
27188;DHT22;14708;50.872;5.306;2024-02-21T04:05:28;26.30;40.60
27188;DHT22;14708;50.872;5.306;2024-02-21T04:07:53;26.30;40.50
27188;DHT22;14708;50.872;5.306;2024-02-21T04:10:21;26.30;40.60
27188;DHT22;14708;50.872;5.306;2024-02-21T04:12:50;26.30;40.60
27188;DHT22;14708;50.872;5.306;2024-02-21T04:15:17;26.20;40.60
27188;DHT22;14708;50.872;5.306;2024-02-21T04:17:44;26.30;40.60
27188;DHT22;14708;50.872;5.306;2024-02-21T04:20:14;26.30;40.60
27188;DHT22;14708;50.872;5.306;2024-02-21T04:22:40;26.20;40.50
27188;DHT22;14708;50.872;5.306;2024-02-21T04:25:07;26.20;40.50
27188;DHT22;14708;50.872;5.306;2024-02-21T04:27:34;26.20;40.60
27188;DHT22;14708;50.872;5.306;2024-02-21T04:30:00;26.20;40.60
27188;DHT22;14708;50.872;5.306;2024-02-21T04:32:26;26.20;40.50
27188;DHT22;14708;50.872;5.306;2024-02-21T04:34:53;26.20;40.50
27188;DHT22;14708;50.872;5.306;2024-02-21T04:37:18;26.20;40.60
27188;DHT22;14708;50.872;5.306;2024-02-21T04:39:44;26.20;40.70
27188;DHT22;14708;50.872;5.306;2024-02-21T04:42:10;26.20;40.50
27188;DHT22;14708;50.872;5.306;2024-02-21T04:44:37;26.20;40.40
27188;DHT22;14708;50.872;5.306;2024-02-21T04:47:03;26.20;40.40
27188;DHT22;14708;50.872;5.306;2024-02-21T04:49:29;26.20;40.30
27188;DHT22;14708;50.872;5.306;2024-02-21T04:51:55;26.20;40.40
27188;DHT22;14708;50.872;5.306;2024-02-21T04:54:21;26.10;40.30
27188;DHT22;14708;50.872;5.306;2024-02-21T04:56:47;26.20;40.30
27188;DHT22;14708;50.872;5.306;2024-02-21T04:59:14;26.20;40.30
27188;DHT22;14708;50.872;5.306;2024-02-21T05:01:41;26.10;40.30
27188;DHT22;14708;50.872;5.306;2024-02-21T05:04:07;26.20;40.30
27188;DHT22;14708;50.872;5.306;2024-02-21T05:06:37;26.10;40.40
27188;DHT22;14708;50.872;5.306;2024-02-21T05:09:03;26.20;40.50
27188;DHT22;14708;50.872;5.306;2024-02-21T05:11:28;26.10;40.40
27188;DHT22;14708;50.872;5.306;2024-02-21T05:13:54;26.10;40.50
27188;DHT22;14708;50.872;5.306;2024-02-21T05:16:20;26.10;40.40
27188;DHT22;14708;50.872;5.306;2024-02-21T05:18:47;26.10;40.40
27188;DHT22;14708;50.872;5.306;2024-02-21T05:21:14;26.10;40.30
27188;DHT22;14708;50.872;5.306;2024-02-21T05:23:42;26.10;40.30
27188;DHT22;14708;50.872;5.306;2024-02-21T05:26:09;26.10;40.30
27188;DHT22;14708;50.872;5.306;2024-02-21T05:28:34;26.10;40.30
27188;DHT22;14708;50.872;5.306;2024-02-21T05:31:00;26.10;40.40
27188;DHT22;14708;50.872;5.306;2024-02-21T05:33:26;26.10;40.40
27188;DHT22;14708;50.872;5.306;2024-02-21T05:35:52;26.10;40.30
27188;DHT22;14708;50.872;5.306;2024-02-21T05:38:17;26.10;40.40
27188;DHT22;14708;50.872;5.306;2024-02-21T05:40:44;26.10;40.50
27188;DHT22;14708;50.872;5.306;2024-02-21T05:43:10;26.10;40.50
27188;DHT22;14708;50.872;5.306;2024-02-21T05:45:38;26.00;40.30
27188;DHT22;14708;50.872;5.306;2024-02-21T05:48:05;26.10;40.30
27188;DHT22;14708;50.872;5.306;2024-02-21T05:50:32;26.10;40.40
27188;DHT22;14708;50.872;5.306;2024-02-21T05:52:58;26.00;40.40
27188;DHT22;14708;50.872;5.306;2024-02-21T05:55:24;26.00;40.40
27188;DHT22;14708;50.872;5.306;2024-02-21T05:57:53;26.00;40.40
27188;DHT22;14708;50.872;5.306;2024-02-21T06:00:21;26.00;40.00
27188;DHT22;14708;50.872;5.306;2024-02-21T06:02:48;26.10;40.30
27188;DHT22;14708;50.872;5.306;2024-02-21T06:05:15;26.00;40.10
27188;DHT22;14708;50.872;5.306;2024-02-21T06:07:44;26.00;40.00
27188;DHT22;14708;50.872;5.306;2024-02-21T06:10:09;26.00;40.10
27188;DHT22;14708;50.872;5.306;2024-02-21T06:12:35;26.00;40.20
27188;DHT22;14708;50.872;5.306;2024-02-21T06:15:00;26.00;40.00
27188;DHT22;14708;50.872;5.306;2024-02-21T06:17:27;26.10;40.80
27188;DHT22;14708;50.872;5.306;2024-02-21T06:19:53;26.00;40.10
27188;DHT22;14708;50.872;5.306;2024-02-21T06:22:19;26.00;40.10
27188;DHT22;14708;50.872;5.306;2024-02-21T06:24:44;26.00;40.10
27188;DHT22;14708;50.872;5.306;2024-02-21T06:27:11;26.00;40.10
27188;DHT22;14708;50.872;5.306;2024-02-21T06:29:37;26.00;40.00
27188;DHT22;14708;50.872;5.306;2024-02-21T06:32:03;26.00;40.10
27188;DHT22;14708;50.872;5.306;2024-02-21T06:34:29;26.00;40.10
27188;DHT22;14708;50.872;5.306;2024-02-21T06:36:54;25.90;40.10
27188;DHT22;14708;50.872;5.306;2024-02-21T06:39:20;25.90;40.00
27188;DHT22;14708;50.872;5.306;2024-02-21T06:41:47;26.00;40.10
27188;DHT22;14708;50.872;5.306;2024-02-21T06:44:16;26.00;40.00
27188;DHT22;14708;50.872;5.306;2024-02-21T06:46:42;25.90;40.10
27188;DHT22;14708;50.872;5.306;2024-02-21T06:49:10;25.90;40.00
27188;DHT22;14708;50.872;5.306;2024-02-21T06:51:44;25.90;40.00
27188;DHT22;14708;50.872;5.306;2024-02-21T06:54:10;25.90;40.10
27188;DHT22;14708;50.872;5.306;2024-02-21T06:56:36;25.90;40.20
27188;DHT22;14708;50.872;5.306;2024-02-21T06:59:05;26.00;40.20
27188;DHT22;14708;50.872;5.306;2024-02-21T07:01:33;25.90;40.30
27188;DHT22;14708;50.872;5.306;2024-02-21T07:04:00;25.90;40.20
27188;DHT22;14708;50.872;5.306;2024-02-21T07:06:25;25.90;40.20
27188;DHT22;14708;50.872;5.306;2024-02-21T07:08:51;25.90;40.10
27188;DHT22;14708;50.872;5.306;2024-02-21T07:11:18;25.90;40.20
27188;DHT22;14708;50.872;5.306;2024-02-21T07:13:44;25.90;40.10
27188;DHT22;14708;50.872;5.306;2024-02-21T07:16:10;25.90;39.80
27188;DHT22;14708;50.872;5.306;2024-02-21T07:18:36;25.90;40.10
27188;DHT22;14708;50.872;5.306;2024-02-21T07:21:03;26.00;40.60
27188;DHT22;14708;50.872;5.306;2024-02-21T07:23:28;26.00;40.80
27188;DHT22;14708;50.872;5.306;2024-02-21T07:25:54;26.00;40.70
27188;DHT22;14708;50.872;5.306;2024-02-21T07:28:20;25.90;40.80
27188;DHT22;14708;50.872;5.306;2024-02-21T07:30:46;26.00;41.00
27188;DHT22;14708;50.872;5.306;2024-02-21T07:33:11;26.00;41.50
27188;DHT22;14708;50.872;5.306;2024-02-21T07:35:37;25.90;41.70
27188;DHT22;14708;50.872;5.306;2024-02-21T07:38:04;25.90;41.60
27188;DHT22;14708;50.872;5.306;2024-02-21T07:40:32;25.70;42.10
27188;DHT22;14708;50.872;5.306;2024-02-21T07:43:00;25.70;42.00
27188;DHT22;14708;50.872;5.306;2024-02-21T07:45:26;25.80;41.80
27188;DHT22;14708;50.872;5.306;2024-02-21T07:47:52;25.80;41.90
27188;DHT22;14708;50.872;5.306;2024-02-21T07:50:18;25.80;41.80
27188;DHT22;14708;50.872;5.306;2024-02-21T07:52:43;25.90;41.60
27188;DHT22;14708;50.872;5.306;2024-02-21T07:55:10;25.90;41.50
27188;DHT22;14708;50.872;5.306;2024-02-21T07:57:36;26.10;41.20
27188;DHT22;14708;50.872;5.306;2024-02-21T08:00:03;26.20;40.90
27188;DHT22;14708;50.872;5.306;2024-02-21T08:02:30;26.30;40.40
27188;DHT22;14708;50.872;5.306;2024-02-21T08:04:56;26.40;40.10
27188;DHT22;14708;50.872;5.306;2024-02-21T08:07:23;26.30;40.10
27188;DHT22;14708;50.872;5.306;2024-02-21T08:09:48;26.10;40.60
27188;DHT22;14708;50.872;5.306;2024-02-21T08:12:14;26.10;40.50
27188;DHT22;14708;50.872;5.306;2024-02-21T08:14:40;26.20;40.40
27188;DHT22;14708;50.872;5.306;2024-02-21T08:17:05;26.30;40.10
27188;DHT22;14708;50.872;5.306;2024-02-21T08:19:32;26.50;39.80
27188;DHT22;14708;50.872;5.306;2024-02-21T08:21:57;26.50;40.00
27188;DHT22;14708;50.872;5.306;2024-02-21T08:24:23;26.60;40.60
27188;DHT22;14708;50.872;5.306;2024-02-21T08:26:49;26.60;41.00
27188;DHT22;14708;50.872;5.306;2024-02-21T08:29:14;26.60;38.10
27188;DHT22;14708;50.872;5.306;2024-02-21T08:31:40;26.60;39.60
27188;DHT22;14708;50.872;5.306;2024-02-21T08:34:06;26.60;38.50
27188;DHT22;14708;50.872;5.306;2024-02-21T08:36:35;26.60;39.60
27188;DHT22;14708;50.872;5.306;2024-02-21T08:39:03;26.60;41.40
27188;DHT22;14708;50.872;5.306;2024-02-21T08:41:33;26.50;40.80
27188;DHT22;14708;50.872;5.306;2024-02-21T08:44:00;26.50;41.00
27188;DHT22;14708;50.872;5.306;2024-02-21T08:46:26;26.50;41.60
27188;DHT22;14708;50.872;5.306;2024-02-21T08:48:53;26.50;42.40
27188;DHT22;14708;50.872;5.306;2024-02-21T08:51:19;26.40;40.00
27188;DHT22;14708;50.872;5.306;2024-02-21T08:53:45;26.50;43.50
27188;DHT22;14708;50.872;5.306;2024-02-21T08:56:11;26.50;43.20
27188;DHT22;14708;50.872;5.306;2024-02-21T08:58:38;26.50;42.40
27188;DHT22;14708;50.872;5.306;2024-02-21T09:01:05;26.50;42.70
27188;DHT22;14708;50.872;5.306;2024-02-21T09:03:33;26.50;43.30
27188;DHT22;14708;50.872;5.306;2024-02-21T09:06:00;26.50;43.30
27188;DHT22;14708;50.872;5.306;2024-02-21T09:08:27;26.50;43.10
27188;DHT22;14708;50.872;5.306;2024-02-21T09:10:53;26.40;43.80
27188;DHT22;14708;50.872;5.306;2024-02-21T09:13:19;26.40;42.30
27188;DHT22;14708;50.872;5.306;2024-02-21T09:15:45;26.40;42.70
27188;DHT22;14708;50.872;5.306;2024-02-21T09:18:10;26.40;42.90
27188;DHT22;14708;50.872;5.306;2024-02-21T09:20:36;26.50;42.20
27188;DHT22;14708;50.872;5.306;2024-02-21T09:23:02;26.40;42.90
27188;DHT22;14708;50.872;5.306;2024-02-21T09:25:27;26.40;44.00
27188;DHT22;14708;50.872;5.306;2024-02-21T09:27:56;26.50;44.30
27188;DHT22;14708;50.872;5.306;2024-02-21T09:30:24;26.50;43.20
27188;DHT22;14708;50.872;5.306;2024-02-21T09:32:51;26.40;43.30
27188;DHT22;14708;50.872;5.306;2024-02-21T09:35:18;26.40;43.80
27188;DHT22;14708;50.872;5.306;2024-02-21T09:37:45;26.50;44.20
27188;DHT22;14708;50.872;5.306;2024-02-21T09:40:15;26.40;44.70
27188;DHT22;14708;50.872;5.306;2024-02-21T09:42:47;26.40;42.50
27188;DHT22;14708;50.872;5.306;2024-02-21T09:45:23;26.40;45.70
27188;DHT22;14708;50.872;5.306;2024-02-21T09:50:31;26.50;43.10
27188;DHT22;14708;50.872;5.306;2024-02-21T09:52:59;26.40;44.50
27188;DHT22;14708;50.872;5.306;2024-02-21T09:55:27;26.40;46.20
27188;DHT22;14708;50.872;5.306;2024-02-21T09:57:55;26.50;45.90
27188;DHT22;14708;50.872;5.306;2024-02-21T10:00:22;26.50;46.30
27188;DHT22;14708;50.872;5.306;2024-02-21T10:02:48;26.40;46.90
27188;DHT22;14708;50.872;5.306;2024-02-21T10:05:17;26.50;47.10
27188;DHT22;14708;50.872;5.306;2024-02-21T10:07:45;26.50;47.00
27188;DHT22;14708;50.872;5.306;2024-02-21T10:10:13;26.50;46.80
27188;DHT22;14708;50.872;5.306;2024-02-21T10:12:49;26.50;46.30
27188;DHT22;14708;50.872;5.306;2024-02-21T10:15:20;26.50;47.10
27188;DHT22;14708;50.872;5.306;2024-02-21T10:17:47;26.50;46.60
27188;DHT22;14708;50.872;5.306;2024-02-21T10:20:13;26.50;47.00
27188;DHT22;14708;50.872;5.306;2024-02-21T10:22:40;26.60;47.20
27188;DHT22;14708;50.872;5.306;2024-02-21T10:25:10;26.50;47.30
27188;DHT22;14708;50.872;5.306;2024-02-21T10:27:39;26.50;47.80
27188;DHT22;14708;50.872;5.306;2024-02-21T10:30:07;26.50;47.60
27188;DHT22;14708;50.872;5.306;2024-02-21T10:32:33;26.50;47.30
27188;DHT22;14708;50.872;5.306;2024-02-21T10:35:03;26.50;47.30
27188;DHT22;14708;50.872;5.306;2024-02-21T10:37:34;26.50;46.60
27188;DHT22;14708;50.872;5.306;2024-02-21T10:40:00;26.50;46.50
27188;DHT22;14708;50.872;5.306;2024-02-21T10:42:29;26.40;46.60
27188;DHT22;14708;50.872;5.306;2024-02-21T10:45:01;26.40;47.30
27188;DHT22;14708;50.872;5.306;2024-02-21T10:47:32;26.30;47.30
27188;DHT22;14708;50.872;5.306;2024-02-21T10:50:06;26.40;47.60
27188;DHT22;14708;50.872;5.306;2024-02-21T10:52:48;26.40;47.90
27188;DHT22;14708;50.872;5.306;2024-02-21T10:55:21;26.40;47.10
27188;DHT22;14708;50.872;5.306;2024-02-21T10:57:52;26.40;47.60
27188;DHT22;14708;50.872;5.306;2024-02-21T11:00:19;26.50;47.40
27188;DHT22;14708;50.872;5.306;2024-02-21T11:02:46;26.50;43.30
27188;DHT22;14708;50.872;5.306;2024-02-21T11:05:13;26.40;43.80
27188;DHT22;14708;50.872;5.306;2024-02-21T11:07:40;26.40;43.20
27188;DHT22;14708;50.872;5.306;2024-02-21T11:10:19;26.40;42.90
27188;DHT22;14708;50.872;5.306;2024-02-21T11:12:46;26.50;43.10
27188;DHT22;14708;50.872;5.306;2024-02-21T11:15:12;26.60;43.60
27188;DHT22;14708;50.872;5.306;2024-02-21T11:17:39;26.60;43.60
27188;DHT22;14708;50.872;5.306;2024-02-21T11:20:15;26.60;43.40
27188;DHT22;14708;50.872;5.306;2024-02-21T11:22:43;26.60;43.50
27188;DHT22;14708;50.872;5.306;2024-02-21T11:25:09;26.60;43.70
27188;DHT22;14708;50.872;5.306;2024-02-21T11:27:38;26.60;42.20
27188;DHT22;14708;50.872;5.306;2024-02-21T11:30:05;26.60;42.50
27188;DHT22;14708;50.872;5.306;2024-02-21T11:32:31;26.70;42.60
27188;DHT22;14708;50.872;5.306;2024-02-21T11:34:58;26.70;42.60
27188;DHT22;14708;50.872;5.306;2024-02-21T11:37:28;26.70;42.30
27188;DHT22;14708;50.872;5.306;2024-02-21T11:39:55;26.70;42.30
27188;DHT22;14708;50.872;5.306;2024-02-21T11:42:21;26.80;42.40
27188;DHT22;14708;50.872;5.306;2024-02-21T11:44:46;26.80;42.30
27188;DHT22;14708;50.872;5.306;2024-02-21T11:47:14;26.70;42.10
27188;DHT22;14708;50.872;5.306;2024-02-21T11:49:45;26.80;42.50
27188;DHT22;14708;50.872;5.306;2024-02-21T11:52:14;26.70;42.00
27188;DHT22;14708;50.872;5.306;2024-02-21T11:54:41;26.80;42.00
27188;DHT22;14708;50.872;5.306;2024-02-21T11:57:07;26.80;42.20
27188;DHT22;14708;50.872;5.306;2024-02-21T11:59:34;26.70;42.40
27188;DHT22;14708;50.872;5.306;2024-02-21T12:02:01;26.70;42.30
27188;DHT22;14708;50.872;5.306;2024-02-21T12:04:29;26.70;42.20
27188;DHT22;14708;50.872;5.306;2024-02-21T12:06:57;26.70;42.30
27188;DHT22;14708;50.872;5.306;2024-02-21T12:09:23;26.70;42.40
27188;DHT22;14708;50.872;5.306;2024-02-21T12:12:00;26.70;42.60
27188;DHT22;14708;50.872;5.306;2024-02-21T12:14:28;26.70;42.60
27188;DHT22;14708;50.872;5.306;2024-02-21T12:16:54;26.70;42.50
27188;DHT22;14708;50.872;5.306;2024-02-21T12:19:20;26.70;42.60
27188;DHT22;14708;50.872;5.306;2024-02-21T12:21:48;26.70;42.50
27188;DHT22;14708;50.872;5.306;2024-02-21T12:27:37;26.70;42.50
27188;DHT22;14708;50.872;5.306;2024-02-21T12:30:03;26.70;42.50
27188;DHT22;14708;50.872;5.306;2024-02-21T12:32:35;26.70;42.50
27188;DHT22;14708;50.872;5.306;2024-02-21T12:35:01;26.70;42.70
27188;DHT22;14708;50.872;5.306;2024-02-21T12:37:27;26.70;42.70
27188;DHT22;14708;50.872;5.306;2024-02-21T12:39:53;26.70;42.70
27188;DHT22;14708;50.872;5.306;2024-02-21T12:42:20;26.70;43.00
27188;DHT22;14708;50.872;5.306;2024-02-21T12:44:46;26.70;42.90
27188;DHT22;14708;50.872;5.306;2024-02-21T12:47:12;26.70;43.00
27188;DHT22;14708;50.872;5.306;2024-02-21T12:49:38;26.70;43.10
27188;DHT22;14708;50.872;5.306;2024-02-21T12:52:04;26.70;43.10
27188;DHT22;14708;50.872;5.306;2024-02-21T12:54:29;26.80;43.20
27188;DHT22;14708;50.872;5.306;2024-02-21T12:56:56;26.80;43.00
27188;DHT22;14708;50.872;5.306;2024-02-21T12:59:23;26.80;43.20
27188;DHT22;14708;50.872;5.306;2024-02-21T13:01:49;26.90;43.10
27188;DHT22;14708;50.872;5.306;2024-02-21T13:04:15;26.90;42.70
27188;DHT22;14708;50.872;5.306;2024-02-21T13:06:40;26.90;42.40
27188;DHT22;14708;50.872;5.306;2024-02-21T13:09:06;27.00;42.60
27188;DHT22;14708;50.872;5.306;2024-02-21T13:11:36;27.10;42.60
27188;DHT22;14708;50.872;5.306;2024-02-21T13:14:03;27.00;42.50
27188;DHT22;14708;50.872;5.306;2024-02-21T13:16:29;27.10;42.60
27188;DHT22;14708;50.872;5.306;2024-02-21T13:18:55;27.00;42.80
27188;DHT22;14708;50.872;5.306;2024-02-21T13:21:20;27.00;43.10
27188;DHT22;14708;50.872;5.306;2024-02-21T13:23:47;27.10;43.10
27188;DHT22;14708;50.872;5.306;2024-02-21T13:26:13;27.10;43.20
27188;DHT22;14708;50.872;5.306;2024-02-21T13:28:39;27.00;43.40
27188;DHT22;14708;50.872;5.306;2024-02-21T13:31:05;27.10;43.50
27188;DHT22;14708;50.872;5.306;2024-02-21T13:33:31;27.10;43.70
27188;DHT22;14708;50.872;5.306;2024-02-21T13:35:56;27.10;43.80
27188;DHT22;14708;50.872;5.306;2024-02-21T13:38:22;27.00;43.80
27188;DHT22;14708;50.872;5.306;2024-02-21T13:40:49;27.00;43.80
27188;DHT22;14708;50.872;5.306;2024-02-21T13:43:16;27.00;44.00
27188;DHT22;14708;50.872;5.306;2024-02-21T13:45:56;27.00;44.10
27188;DHT22;14708;50.872;5.306;2024-02-21T13:48:22;27.00;44.20
27188;DHT22;14708;50.872;5.306;2024-02-21T13:50:47;26.90;44.40
27188;DHT22;14708;50.872;5.306;2024-02-21T13:53:13;27.00;44.60
27188;DHT22;14708;50.872;5.306;2024-02-21T13:55:38;26.90;44.30
27188;DHT22;14708;50.872;5.306;2024-02-21T13:58:06;26.90;44.70
27188;DHT22;14708;50.872;5.306;2024-02-21T14:00:31;26.90;45.00
27188;DHT22;14708;50.872;5.306;2024-02-21T14:02:59;26.90;45.10
27188;DHT22;14708;50.872;5.306;2024-02-21T14:05:26;26.90;45.20
27188;DHT22;14708;50.872;5.306;2024-02-21T14:07:54;26.80;45.00
27188;DHT22;14708;50.872;5.306;2024-02-21T14:10:21;26.80;45.60
27188;DHT22;14708;50.872;5.306;2024-02-21T14:12:46;26.90;45.50
27188;DHT22;14708;50.872;5.306;2024-02-21T14:15:13;26.80;45.00
27188;DHT22;14708;50.872;5.306;2024-02-21T14:17:42;26.80;45.70
27188;DHT22;14708;50.872;5.306;2024-02-21T14:20:08;26.80;45.80
27188;DHT22;14708;50.872;5.306;2024-02-21T14:22:35;26.80;45.90
27188;DHT22;14708;50.872;5.306;2024-02-21T14:25:03;26.70;46.00
27188;DHT22;14708;50.872;5.306;2024-02-21T14:27:32;26.80;45.90
27188;DHT22;14708;50.872;5.306;2024-02-21T14:29:58;26.70;45.70
27188;DHT22;14708;50.872;5.306;2024-02-21T14:32:24;26.70;46.20
27188;DHT22;14708;50.872;5.306;2024-02-21T14:34:50;26.70;46.10
27188;DHT22;14708;50.872;5.306;2024-02-21T14:37:15;26.80;46.60
27188;DHT22;14708;50.872;5.306;2024-02-21T14:39:42;26.70;46.10
27188;DHT22;14708;50.872;5.306;2024-02-21T14:42:08;26.70;46.70
27188;DHT22;14708;50.872;5.306;2024-02-21T14:44:36;26.70;46.70
27188;DHT22;14708;50.872;5.306;2024-02-21T14:47:03;26.70;46.90
27188;DHT22;14708;50.872;5.306;2024-02-21T14:49:30;26.70;46.60
27188;DHT22;14708;50.872;5.306;2024-02-21T14:51:55;26.70;46.80
27188;DHT22;14708;50.872;5.306;2024-02-21T14:54:21;26.70;47.30
27188;DHT22;14708;50.872;5.306;2024-02-21T14:56:48;26.60;47.40
27188;DHT22;14708;50.872;5.306;2024-02-21T14:59:14;26.70;47.30
27188;DHT22;14708;50.872;5.306;2024-02-21T15:01:39;26.80;47.50
27188;DHT22;14708;50.872;5.306;2024-02-21T15:04:07;26.70;46.40
27188;DHT22;14708;50.872;5.306;2024-02-21T15:06:33;26.70;47.80
27188;DHT22;14708;50.872;5.306;2024-02-21T15:09:01;26.80;48.00
27188;DHT22;14708;50.872;5.306;2024-02-21T15:11:29;26.80;47.90
27188;DHT22;14708;50.872;5.306;2024-02-21T15:13:55;26.80;47.90
27188;DHT22;14708;50.872;5.306;2024-02-21T15:16:22;26.80;47.90
27188;DHT22;14708;50.872;5.306;2024-02-21T15:18:47;26.70;47.70
27188;DHT22;14708;50.872;5.306;2024-02-21T15:21:13;26.60;48.40
27188;DHT22;14708;50.872;5.306;2024-02-21T15:23:41;26.60;48.40
27188;DHT22;14708;50.872;5.306;2024-02-21T15:26:07;26.60;47.70
27188;DHT22;14708;50.872;5.306;2024-02-21T15:28:33;26.70;48.20
27188;DHT22;14708;50.872;5.306;2024-02-21T15:31:00;26.70;48.10
27188;DHT22;14708;50.872;5.306;2024-02-21T15:33:26;26.70;47.90
27188;DHT22;14708;50.872;5.306;2024-02-21T15:35:52;26.60;48.20